Time;durP1;ratioP1;P1;durP2;ratioP2;P2;SDS_P1;SDS_P2;PMS_P1;PMS_P2;Temp;Humidity;BMP_temperature;BMP_pressure;BME280_temperature;BME280_humidity;BME280_pressure;Samples;Min_cycle;Max_cycle;Signal;HPM_P1;HPM_P2
2023/08/01 00:00:25;;;;;;;0.90;0.90;;;19.30;99.90;;;;;;2078480;28;20512;-71
2023/08/01 00:01:26;;;;;;;0.98;0.70;;;19.20;99.90;;;;;;2080156;28;20025;-71
2023/08/01 00:02:26;;;;;;;0.88;0.88;;;19.20;99.90;;;;;;2079497;28;20021;-71
2023/08/01 00:03:27;;;;;;;1.17;1.08;;;19.30;99.90;;;;;;2079188;28;20148;-71
2023/08/01 00:04:27;;;;;;;0.88;0.88;;;19.30;99.90;;;;;;2080514;28;20024;-71
2023/08/01 00:05:28;;;;;;;0.75;0.75;;;19.20;99.90;;;;;;2079488;28;20032;-71
2023/08/01 00:06:28;;;;;;;1.55;1.00;;;19.30;99.90;;;;;;2079214;28;20033;-71
2023/08/01 00:07:29;;;;;;;1.13;1.02;;;19.30;99.90;;;;;;2079819;28;20473;-71
2023/08/01 00:08:29;;;;;;;1.00;0.85;;;19.30;99.90;;;;;;2080530;28;20056;-71
2023/08/01 00:09:30;;;;;;;1.88;1.27;;;19.20;99.90;;;;;;2081770;28;20065;-71
2023/08/01 00:10:30;;;;;;;0.85;0.85;;;19.20;99.90;;;;;;2080814;28;20469;-71
2023/08/01 00:11:31;;;;;;;0.80;0.80;;;19.20;99.90;;;;;;2078888;28;20433;-71
2023/08/01 00:12:31;;;;;;;0.68;0.68;;;19.30;99.90;;;;;;2082466;28;20029;-71
2023/08/01 00:13:32;;;;;;;0.75;0.70;;;19.20;99.90;;;;;;2078873;28;20037;-71
2023/08/01 00:14:32;;;;;;;3.63;1.15;;;19.20;99.90;;;;;;2079986;28;20021;-71
2023/08/01 00:15:33;;;;;;;0.60;0.60;;;19.20;99.90;;;;;;2081288;28;20021;-71
2023/08/01 00:16:34;;;;;;;1.17;0.60;;;19.30;99.90;;;;;;2078134;28;20168;-71
2023/08/01 00:17:35;;;;;;;0.95;0.68;;;19.30;99.90;;;;;;2080398;28;20017;-71
2023/08/01 00:18:35;;;;;;;0.40;0.40;;;19.20;99.90;;;;;;2077979;28;20021;-71
2023/08/01 00:19:36;;;;;;;0.30;0.30;;;19.20;99.90;;;;;;2076881;28;20044;-71
2023/08/01 00:20:37;;;;;;;0.60;0.60;;;19.20;99.90;;;;;;2078330;28;20025;-71
2023/08/01 00:21:37;;;;;;;0.73;0.70;;;19.20;99.90;;;;;;2079868;28;20033;-71
2023/08/01 00:22:38;;;;;;;0.47;0.47;;;19.20;99.90;;;;;;2078914;28;20029;-71
2023/08/01 00:23:39;;;;;;;0.50;0.50;;;19.20;99.90;;;;;;2080486;28;20040;-71
2023/08/01 00:24:39;;;;;;;0.40;0.40;;;19.20;99.90;;;;;;2079974;28;20108;-71
2023/08/01 00:25:40;;;;;;;1.35;0.60;;;19.20;99.90;;;;;;2078288;28;20072;-71
2023/08/01 00:26:40;;;;;;;0.85;0.70;;;19.20;99.90;;;;;;2080528;28;20762;-71
2023/08/01 00:27:41;;;;;;;0.98;0.45;;;19.20;99.90;;;;;;2079200;28;20061;-71
2023/08/01 00:28:41;;;;;;;1.83;0.63;;;19.20;99.90;;;;;;2080805;28;20033;-71
2023/08/01 00:29:42;;;;;;;3.05;1.13;;;19.10;99.90;;;;;;2078980;28;20033;-71
2023/08/01 00:30:42;;;;;;;1.25;0.80;;;19.10;99.90;;;;;;2078864;28;20120;-71
2023/08/01 00:31:43;;;;;;;1.60;0.70;;;19.10;99.90;;;;;;2079779;28;20032;-71
2023/08/01 00:32:43;;;;;;;0.60;0.50;;;19.10;99.90;;;;;;2080073;28;20778;-71
2023/08/01 00:33:44;;;;;;;1.30;0.85;;;19.10;99.90;;;;;;2080034;28;20021;-71
2023/08/01 00:34:45;;;;;;;0.63;0.60;;;19.10;99.90;;;;;;2080473;28;20040;-71
2023/08/01 00:35:53;;;;;;;0.60;0.60;;;19.10;99.90;;;;;;2079144;28;20481;-71
2023/08/01 00:36:54;;;;;;;0.95;0.85;;;19.10;99.90;;;;;;2080299;28;20025;-71
2023/08/01 00:37:55;;;;;;;1.95;1.10;;;19.10;99.90;;;;;;2078670;28;20053;-71
2023/08/01 00:38:55;;;;;;;1.77;1.55;;;19.10;99.90;;;;;;2079591;28;20025;-71
2023/08/01 00:39:56;;;;;;;1.60;1.50;;;19.10;99.90;;;;;;2078712;28;20401;-71
2023/08/01 00:40:56;;;;;;;1.50;1.40;;;19.00;99.90;;;;;;2078798;28;20048;-71
2023/08/01 00:41:57;;;;;;;1.67;1.58;;;19.00;99.90;;;;;;2081989;28;20033;-71
2023/08/01 00:42:58;;;;;;;2.17;1.60;;;19.00;99.90;;;;;;2078182;28;20485;-71
2023/08/01 00:43:59;;;;;;;1.25;1.23;;;18.90;99.90;;;;;;2079924;28;20045;-71
2023/08/01 00:45:00;;;;;;;1.95;1.40;;;19.00;99.90;;;;;;2080628;28;20036;-71
2023/08/01 00:46:04;;;;;;;1.83;1.52;;;18.90;99.90;;;;;;2077680;28;20028;-71
2023/08/01 00:47:05;;;;;;;2.65;1.40;;;18.90;99.90;;;;;;2077752;28;20118;-71
2023/08/01 00:48:05;;;;;;;1.58;1.48;;;18.90;99.90;;;;;;2080878;28;20029;-71
2023/08/01 00:49:08;;;;;;;1.20;1.10;;;18.90;99.90;;;;;;2080348;28;20133;-71
2023/08/01 00:50:09;;;;;;;1.20;1.10;;;18.90;99.90;;;;;;2079907;28;20026;-71
2023/08/01 00:51:09;;;;;;;1.85;1.75;;;18.90;99.90;;;;;;2079906;28;20018;-71
2023/08/01 00:52:10;;;;;;;3.22;1.85;;;18.90;99.90;;;;;;2079169;28;20036;-71
2023/08/01 00:53:11;;;;;;;1.95;1.70;;;18.90;99.90;;;;;;2082299;28;20563;-71
2023/08/01 00:54:12;;;;;;;2.25;1.98;;;18.90;99.90;;;;;;2079299;28;20427;-71
2023/08/01 00:55:14;;;;;;;2.25;1.90;;;18.90;99.90;;;;;;2079452;28;20408;-71
2023/08/01 00:56:14;;;;;;;2.05;1.80;;;18.90;99.90;;;;;;2079872;28;20591;-71
2023/08/01 00:57:15;;;;;;;1.25;1.15;;;18.90;99.90;;;;;;2080081;28;20473;-71
2023/08/01 00:58:15;;;;;;;1.55;1.45;;;18.90;99.90;;;;;;2079564;28;20040;-71
2023/08/01 00:59:16;;;;;;;1.38;1.27;;;18.90;99.90;;;;;;2079979;28;20030;-71
2023/08/01 01:00:16;;;;;;;1.95;1.50;;;18.90;99.90;;;;;;2081758;28;20099;-71
2023/08/01 01:01:17;;;;;;;1.70;1.35;;;18.90;99.90;;;;;;2080742;28;20038;-70
2023/08/01 01:02:18;;;;;;;2.42;1.30;;;19.00;99.90;;;;;;2079246;28;20370;-70
2023/08/01 01:03:19;;;;;;;1.48;1.38;;;19.00;99.90;;;;;;2080660;28;20908;-71
2023/08/01 01:04:20;;;;;;;1.90;1.60;;;19.00;99.90;;;;;;2081887;28;20595;-70
2023/08/01 01:05:22;;;;;;;1.77;1.60;;;19.00;99.90;;;;;;2079714;28;20487;-70
2023/08/01 01:06:47;;;;;;;1.27;1.17;;;19.00;99.90;;;;;;2080594;28;20555;-71
2023/08/01 01:07:48;;;;;;;2.78;1.42;;;19.00;99.90;;;;;;2080487;28;20052;-70
2023/08/01 01:08:48;;;;;;;1.58;1.30;;;19.00;99.90;;;;;;2078516;28;20031;-71
2023/08/01 01:09:50;;;;;;;1.23;0.90;;;19.00;99.90;;;;;;2080220;28;20036;-70
2023/08/01 01:10:51;;;;;;;1.70;1.60;;;19.00;99.90;;;;;;2079352;28;20041;-71
2023/08/01 01:11:51;;;;;;;1.35;1.25;;;19.00;99.90;;;;;;2081555;28;20560;-70
2023/08/01 01:12:52;;;;;;;1.45;1.30;;;19.00;99.90;;;;;;2079828;28;20025;-70
2023/08/01 01:13:53;;;;;;;1.38;1.27;;;19.00;99.90;;;;;;2080209;28;20022;-70
2023/08/01 01:14:53;;;;;;;1.50;1.40;;;19.00;99.90;;;;;;2078946;28;20064;-70
2023/08/01 01:15:54;;;;;;;1.42;1.33;;;19.00;99.90;;;;;;2081259;28;20021;-70
2023/08/01 01:16:55;;;;;;;1.30;1.20;;;19.00;99.90;;;;;;2081879;28;20493;-70
2023/08/01 01:17:55;;;;;;;1.63;1.40;;;19.00;99.90;;;;;;2080727;28;20370;-70
2023/08/01 01:18:56;;;;;;;1.52;1.42;;;19.00;99.90;;;;;;2080265;28;20017;-70
2023/08/01 01:19:57;;;;;;;1.45;1.20;;;19.00;99.90;;;;;;2082035;28;20090;-70
2023/08/01 01:20:58;;;;;;;1.70;1.60;;;19.00;99.90;;;;;;2081149;28;20492;-70
2023/08/01 01:21:58;;;;;;;1.33;1.10;;;19.00;99.90;;;;;;2081658;28;20385;-70
2023/08/01 01:23:00;;;;;;;1.25;1.20;;;19.00;99.90;;;;;;2081588;28;20135;-71
2023/08/01 01:24:02;;;;;;;1.77;1.27;;;19.00;99.90;;;;;;2083071;28;20036;-70
2023/08/01 01:25:06;;;;;;;1.35;1.25;;;19.00;99.90;;;;;;2083821;28;20389;-70
2023/08/01 01:26:08;;;;;;;1.05;1.05;;;19.10;99.90;;;;;;2083142;28;20033;-70
2023/08/01 01:27:09;;;;;;;2.15;1.27;;;19.00;99.90;;;;;;2082874;28;20045;-70
2023/08/01 01:28:10;;;;;;;1.67;1.30;;;19.00;99.90;;;;;;2080774;28;20020;-70
2023/08/01 01:29:12;;;;;;;1.50;1.02;;;19.10;99.90;;;;;;2080913;28;20067;-70
2023/08/01 01:30:12;;;;;;;2.15;1.52;;;19.10;99.90;;;;;;2081703;28;20021;-70
2023/08/01 01:31:14;;;;;;;1.40;1.30;;;19.10;99.90;;;;;;2081791;28;20029;-70
2023/08/01 01:32:15;;;;;;;1.40;1.30;;;19.00;99.90;;;;;;2082002;28;20049;-70
2023/08/01 01:33:16;;;;;;;1.30;1.20;;;19.00;99.90;;;;;;2082227;28;20485;-70
2023/08/01 01:34:16;;;;;;;1.77;1.40;;;19.10;99.90;;;;;;2082143;28;20387;-70
2023/08/01 01:35:17;;;;;;;1.90;1.30;;;19.10;99.90;;;;;;2081887;28;20053;-70
2023/08/01 01:36:18;;;;;;;1.30;1.20;;;19.10;99.90;;;;;;2082858;28;20488;-70
2023/08/01 01:37:18;;;;;;;1.88;1.65;;;19.00;99.90;;;;;;2081947;28;20049;-70
2023/08/01 01:38:19;;;;;;;1.50;1.40;;;19.00;99.90;;;;;;2080589;28;20032;-71
2023/08/01 01:39:20;;;;;;;1.80;1.70;;;19.00;99.90;;;;;;2072996;28;20049;-70
2023/08/01 01:40:20;;;;;;;2.13;1.63;;;19.00;99.90;;;;;;2080246;28;20061;-70
2023/08/01 01:41:22;;;;;;;1.92;1.83;;;19.00;99.90;;;;;;2081981;28;20044;-70
2023/08/01 01:42:22;;;;;;;1.42;1.33;;;19.00;99.90;;;;;;2081069;28;20013;-70
2023/08/01 01:43:23;;;;;;;1.50;1.40;;;18.90;99.90;;;;;;2081814;28;20037;-70
2023/08/01 01:44:23;;;;;;;1.50;1.40;;;18.90;99.90;;;;;;2082539;28;20021;-70
2023/08/01 01:45:24;;;;;;;1.42;1.33;;;18.90;99.90;;;;;;2080079;28;20048;-70
2023/08/01 01:46:25;;;;;;;1.42;1.33;;;18.90;99.90;;;;;;2080589;28;20075;-70
2023/08/01 01:47:25;;;;;;;1.73;1.63;;;18.90;99.90;;;;;;2080174;28;20065;-70
2023/08/01 01:48:26;;;;;;;1.50;1.40;;;18.90;99.90;;;;;;2081247;28;20486;-70
2023/08/01 01:49:26;;;;;;;2.00;1.42;;;18.90;99.90;;;;;;2078799;28;20025;-70
2023/08/01 01:50:27;;;;;;;1.65;1.17;;;18.90;99.90;;;;;;2079875;28;20049;-70
2023/08/01 01:51:29;;;;;;;1.60;1.27;;;18.90;99.90;;;;;;2082807;28;20150;-70
2023/08/01 01:52:29;;;;;;;1.77;1.50;;;18.90;99.90;;;;;;2080287;28;20022;-70
2023/08/01 01:53:30;;;;;;;2.35;1.60;;;18.90;99.90;;;;;;2080892;28;20029;-70
2023/08/01 01:54:30;;;;;;;2.15;1.40;;;18.90;99.90;;;;;;2080109;28;20057;-70
2023/08/01 01:55:31;;;;;;;1.58;1.30;;;18.90;99.90;;;;;;2081353;28;20472;-70
2023/08/01 01:56:32;;;;;;;1.42;1.33;;;18.90;99.90;;;;;;2082910;28;20025;-70
2023/08/01 01:57:33;;;;;;;1.25;1.17;;;18.90;99.90;;;;;;2078819;28;20036;-71
2023/08/01 01:58:33;;;;;;;1.88;1.10;;;18.80;99.90;;;;;;2080163;28;20558;-71
2023/08/01 01:59:34;;;;;;;2.35;1.40;;;18.80;99.90;;;;;;2080027;28;20396;-71
2023/08/01 02:00:34;;;;;;;1.15;1.10;;;18.80;99.90;;;;;;2080306;28;20100;-70
2023/08/01 02:01:35;;;;;;;1.17;1.10;;;18.80;99.90;;;;;;2080516;28;20032;-70
2023/08/01 02:02:35;;;;;;;1.23;1.00;;;18.80;99.90;;;;;;2078770;28;20117;-70
2023/08/01 02:03:36;;;;;;;1.13;1.13;;;18.80;99.90;;;;;;2081815;28;20029;-70
2023/08/01 02:04:37;;;;;;;1.40;1.30;;;18.80;99.90;;;;;;2083256;28;20018;-71
2023/08/01 02:05:39;;;;;;;1.38;0.82;;;18.80;99.90;;;;;;2079762;28;20017;-70
2023/08/01 02:06:39;;;;;;;1.10;0.95;;;18.80;99.90;;;;;;2079758;28;20018;-70
2023/08/01 02:07:40;;;;;;;1.63;1.13;;;18.80;99.90;;;;;;2080939;28;20017;-70
2023/08/01 02:08:40;;;;;;;1.63;0.90;;;18.80;99.90;;;;;;2081539;28;20022;-70
2023/08/01 02:09:41;;;;;;;1.38;1.10;;;18.80;99.90;;;;;;2082087;28;20053;-70
2023/08/01 02:10:42;;;;;;;2.78;1.77;;;18.80;99.90;;;;;;2078113;28;20052;-70
2023/08/01 02:11:42;;;;;;;1.27;1.13;;;18.80;99.90;;;;;;2080479;28;20025;-71
2023/08/01 02:12:43;;;;;;;1.70;0.95;;;18.70;99.90;;;;;;2081577;28;20021;-71
2023/08/01 02:13:43;;;;;;;2.03;1.00;;;18.70;99.90;;;;;;2081626;28;20029;-70
2023/08/01 02:14:44;;;;;;;1.92;1.20;;;18.70;99.90;;;;;;2079865;28;20033;-70
2023/08/01 02:15:44;;;;;;;3.53;1.27;;;18.70;99.90;;;;;;2078359;28;20056;-70
2023/08/01 02:16:45;;;;;;;1.50;1.13;;;18.70;99.90;;;;;;2080161;28;20088;-70
2023/08/01 02:17:45;;;;;;;1.52;1.00;;;18.70;99.90;;;;;;2082449;28;20026;-71
2023/08/01 02:18:46;;;;;;;1.23;1.20;;;18.70;99.90;;;;;;2081583;28;20032;-71
2023/08/01 02:19:46;;;;;;;2.65;1.40;;;18.70;99.90;;;;;;2080539;28;20045;-70
2023/08/01 02:20:47;;;;;;;3.08;1.15;;;18.70;99.90;;;;;;2081006;28;20106;-70
2023/08/01 02:21:47;;;;;;;1.80;1.70;;;18.70;99.90;;;;;;2080251;28;20033;-70
2023/08/01 02:22:48;;;;;;;1.70;1.60;;;18.60;99.90;;;;;;2079809;28;20076;-71
2023/08/01 02:23:48;;;;;;;2.35;1.98;;;18.60;99.90;;;;;;2081727;28;20021;-70
2023/08/01 02:24:49;;;;;;;2.47;2.28;;;18.60;99.90;;;;;;2079156;28;20502;-70
2023/08/01 02:25:49;;;;;;;2.95;2.10;;;18.60;99.90;;;;;;2080486;28;20033;-70
2023/08/01 02:26:51;;;;;;;2.65;2.10;;;18.60;99.90;;;;;;2080492;28;20079;-70
2023/08/01 02:27:51;;;;;;;2.88;2.17;;;18.60;99.90;;;;;;2080409;28;20079;-70
2023/08/01 02:28:52;;;;;;;2.50;2.30;;;18.60;99.90;;;;;;2081859;28;20114;-71
2023/08/01 02:29:52;;;;;;;2.63;2.42;;;18.60;99.90;;;;;;2081944;28;20111;-70
2023/08/01 02:30:53;;;;;;;3.63;3.25;;;18.60;99.90;;;;;;2079020;28;20068;-70
2023/08/01 02:31:54;;;;;;;3.85;2.78;;;18.60;99.90;;;;;;2080798;28;20022;-71
2023/08/01 02:32:55;;;;;;;3.42;3.10;;;18.60;99.90;;;;;;2080463;28;20053;-70
2023/08/01 02:33:55;;;;;;;4.30;2.97;;;18.60;99.90;;;;;;2079372;28;20029;-70
2023/08/01 02:34:56;;;;;;;3.75;3.33;;;18.60;99.90;;;;;;2079159;28;20377;-70
2023/08/01 02:35:56;;;;;;;3.75;3.45;;;18.60;99.90;;;;;;2079201;28;20024;-70
2023/08/01 02:36:57;;;;;;;3.88;3.20;;;18.60;99.90;;;;;;2080406;28;20053;-70
2023/08/01 02:37:57;;;;;;;3.80;3.28;;;18.60;99.90;;;;;;2079380;28;20045;-70
2023/08/01 02:38:58;;;;;;;5.05;3.85;;;18.70;99.90;;;;;;2080293;28;20041;-70
2023/08/01 02:39:58;;;;;;;6.15;3.30;;;18.60;99.90;;;;;;2081125;28;20071;-70
2023/08/01 02:40:59;;;;;;;4.50;4.07;;;18.60;99.90;;;;;;2080395;28;20024;-70
2023/08/01 02:42:00;;;;;;;4.90;3.63;;;18.60;99.90;;;;;;2078934;28;20022;-70
2023/08/01 02:43:00;;;;;;;7.32;3.20;;;18.60;99.90;;;;;;2080504;28;20018;-70
2023/08/01 02:44:01;;;;;;;5.45;4.05;;;18.60;99.90;;;;;;2080480;28;20148;-71
2023/08/01 02:45:01;;;;;;;5.70;4.15;;;18.60;99.90;;;;;;2081341;28;20013;-71
2023/08/01 02:46:02;;;;;;;4.78;3.97;;;18.60;99.90;;;;;;2080973;28;20014;-70
2023/08/01 02:47:03;;;;;;;3.35;3.05;;;18.60;99.90;;;;;;2078531;28;20048;-70
2023/08/01 02:48:03;;;;;;;6.65;4.50;;;18.60;99.90;;;;;;2081552;28;20022;-70
2023/08/01 02:49:04;;;;;;;4.30;3.90;;;18.60;99.90;;;;;;2081553;28;20017;-71
2023/08/01 02:50:05;;;;;;;5.93;4.88;;;18.60;99.90;;;;;;2081612;28;20017;-70
2023/08/01 02:51:08;;;;;;;5.28;4.78;;;18.60;99.90;;;;;;2078005;28;20026;-70
2023/08/01 02:52:10;;;;;;;4.93;4.18;;;18.60;99.90;;;;;;2078981;28;20049;-71
2023/08/01 02:53:10;;;;;;;5.43;4.53;;;18.60;99.90;;;;;;2081097;28;20189;-70
2023/08/01 02:54:11;;;;;;;5.28;4.78;;;18.60;99.90;;;;;;2078389;28;20030;-70
2023/08/01 02:55:11;;;;;;;6.25;4.50;;;18.60;99.90;;;;;;2081126;28;20060;-70
2023/08/01 02:56:12;;;;;;;5.05;4.63;;;18.60;99.90;;;;;;2080591;28;20083;-70
2023/08/01 02:57:12;;;;;;;5.97;4.57;;;18.60;99.90;;;;;;2081360;28;20515;-70
2023/08/01 02:58:13;;;;;;;7.63;5.15;;;18.60;99.90;;;;;;2079817;28;20031;-71
2023/08/01 02:59:13;;;;;;;5.68;4.50;;;18.60;99.90;;;;;;2081769;28;20025;-70
2023/08/01 03:00:14;;;;;;;8.75;5.00;;;18.60;99.90;;;;;;2079592;28;20021;-70
2023/08/01 03:01:14;;;;;;;6.88;5.47;;;18.60;99.90;;;;;;2080991;28;20531;-71
2023/08/01 03:02:15;;;;;;;7.40;5.75;;;18.60;99.90;;;;;;2081118;28;20081;-71
2023/08/01 03:03:16;;;;;;;7.72;5.35;;;18.50;99.90;;;;;;2077428;28;20083;-71
2023/08/01 03:04:16;;;;;;;8.15;4.80;;;18.50;99.90;;;;;;2081599;28;20028;-70
2023/08/01 03:05:17;;;;;;;6.40;5.40;;;18.50;99.90;;;;;;2081275;28;20564;-70
2023/08/01 03:06:18;;;;;;;6.95;5.60;;;18.50;99.90;;;;;;2079499;28;20029;-71
2023/08/01 03:07:18;;;;;;;6.93;4.90;;;18.50;99.90;;;;;;2080182;28;20017;-70
2023/08/01 03:08:19;;;;;;;6.05;4.97;;;18.50;99.90;;;;;;2082735;28;20484;-70
2023/08/01 03:09:19;;;;;;;5.72;5.15;;;18.50;99.90;;;;;;2080681;28;20432;-70
2023/08/01 03:10:20;;;;;;;6.50;5.03;;;18.50;99.90;;;;;;2079885;28;20071;-71
2023/08/01 03:11:20;;;;;;;5.32;4.82;;;18.50;99.90;;;;;;2078236;28;20021;-71
2023/08/01 03:12:21;;;;;;;7.18;5.57;;;18.50;99.90;;;;;;2081799;28;20469;-71
2023/08/01 03:13:21;;;;;;;7.63;5.10;;;18.50;99.90;;;;;;2083839;28;20037;-70
2023/08/01 03:14:22;;;;;;;5.07;4.68;;;18.50;99.90;;;;;;2080936;28;20029;-71
2023/08/01 03:15:22;;;;;;;6.78;4.80;;;18.50;99.90;;;;;;2079505;28;20481;-71
2023/08/01 03:16:23;;;;;;;10.73;5.97;;;18.50;99.90;;;;;;2080921;28;20456;-70
2023/08/01 03:17:24;;;;;;;8.50;5.13;;;18.50;99.90;;;;;;2079568;28;20025;-71
2023/08/01 03:18:24;;;;;;;7.38;5.10;;;18.50;99.90;;;;;;2078355;28;20025;-71
2023/08/01 03:19:25;;;;;;;5.93;5.43;;;18.50;99.90;;;;;;2080117;28;20060;-70
2023/08/01 03:20:25;;;;;;;6.05;5.55;;;18.50;99.90;;;;;;2080756;28;20065;-70
2023/08/01 03:21:26;;;;;;;10.88;5.88;;;18.50;99.90;;;;;;2081517;28;20021;-70
2023/08/01 03:22:27;;;;;;;5.15;4.75;;;18.50;99.90;;;;;;2081706;28;20033;-70
2023/08/01 03:23:28;;;;;;;5.55;5.03;;;18.50;99.90;;;;;;2082377;28;20447;-70
2023/08/01 03:24:28;;;;;;;6.43;5.85;;;18.50;99.90;;;;;;2078992;28;20026;-71
2023/08/01 03:25:29;;;;;;;6.88;6.13;;;18.50;99.90;;;;;;2080742;28;20032;-70
2023/08/01 03:26:30;;;;;;;6.53;5.93;;;18.50;99.90;;;;;;2080588;28;20427;-70
2023/08/01 03:27:30;;;;;;;6.97;6.30;;;18.50;99.90;;;;;;2079792;28;20580;-70
2023/08/01 03:28:31;;;;;;;6.65;6.05;;;18.50;99.90;;;;;;2079908;28;20069;-70
2023/08/01 03:29:31;;;;;;;8.40;7.28;;;18.50;99.90;;;;;;2081359;28;20034;-70
2023/08/01 03:30:32;;;;;;;7.15;6.38;;;18.50;99.90;;;;;;2078560;28;20013;-70
2023/08/01 03:31:33;;;;;;;8.73;6.70;;;18.50;99.90;;;;;;2076037;28;20028;-70
2023/08/01 03:32:34;;;;;;;7.97;7.15;;;18.50;99.90;;;;;;2080207;28;20080;-70
2023/08/01 03:33:35;;;;;;;8.35;6.70;;;18.50;99.90;;;;;;2080001;28;20521;-70
2023/08/01 03:34:35;;;;;;;8.07;7.22;;;18.50;99.90;;;;;;2079874;28;20417;-70
2023/08/01 03:35:36;;;;;;;10.13;7.88;;;18.50;99.90;;;;;;2080341;28;20028;-70
2023/08/01 03:36:36;;;;;;;7.63;6.93;;;18.50;99.90;;;;;;2078784;28;20033;-71
2023/08/01 03:37:37;;;;;;;9.40;8.00;;;18.50;99.90;;;;;;2077216;28;20076;-70
2023/08/01 03:38:38;;;;;;;9.98;8.20;;;18.50;99.90;;;;;;2080914;28;20022;-70
2023/08/01 03:39:39;;;;;;;8.23;7.30;;;18.50;99.90;;;;;;2080642;28;20032;-70
2023/08/01 03:40:39;;;;;;;8.82;7.93;;;18.50;99.90;;;;;;2080728;28;20063;-70
2023/08/01 03:41:40;;;;;;;10.40;8.45;;;18.60;99.90;;;;;;2080448;28;20527;-70
2023/08/01 03:42:41;;;;;;;8.82;7.82;;;18.50;99.90;;;;;;2079530;28;20052;-70
2023/08/01 03:43:41;;;;;;;8.52;7.32;;;18.50;99.90;;;;;;2083097;28;20108;-70
2023/08/01 03:44:42;;;;;;;10.50;8.57;;;18.50;99.90;;;;;;2079029;28;20060;-70
2023/08/01 03:45:42;;;;;;;10.18;9.15;;;18.50;99.90;;;;;;2082270;28;20033;-70
2023/08/01 03:46:43;;;;;;;10.93;9.73;;;18.50;99.90;;;;;;2079972;28;20454;-70
2023/08/01 03:47:43;;;;;;;10.60;9.55;;;18.50;99.90;;;;;;2077022;28;20025;-70
2023/08/01 03:48:44;;;;;;;10.82;9.27;;;18.50;99.90;;;;;;2080454;28;20280;-70
2023/08/01 03:49:44;;;;;;;11.35;10.15;;;18.50;99.90;;;;;;2077461;28;20025;-71
2023/08/01 03:50:45;;;;;;;11.15;9.98;;;18.50;99.90;;;;;;2078554;28;20393;-71
2023/08/01 03:51:46;;;;;;;14.25;10.40;;;18.50;99.90;;;;;;2081086;28;20053;-70
2023/08/01 03:52:46;;;;;;;11.52;9.75;;;18.50;99.90;;;;;;2078026;28;20068;-71
2023/08/01 03:53:47;;;;;;;10.50;8.95;;;18.50;99.90;;;;;;2079784;28;20042;-70
2023/08/01 03:54:48;;;;;;;14.27;10.25;;;18.50;99.90;;;;;;2078768;28;20029;-71
2023/08/01 03:55:49;;;;;;;10.90;9.80;;;18.40;99.90;;;;;;2079552;28;20052;-71
2023/08/01 03:56:49;;;;;;;13.70;10.02;;;18.40;99.90;;;;;;2079779;28;20103;-70
2023/08/01 03:57:50;;;;;;;11.23;9.95;;;18.40;99.90;;;;;;2079305;28;20041;-70
2023/08/01 03:58:50;;;;;;;10.48;9.43;;;18.40;99.90;;;;;;2079282;28;20041;-71
2023/08/01 03:59:51;;;;;;;13.25;9.55;;;18.40;99.90;;;;;;2081411;28;20033;-70
2023/08/01 04:00:51;;;;;;;12.48;10.32;;;18.40;99.90;;;;;;2079423;28;20441;-70
2023/08/01 04:01:52;;;;;;;11.57;10.10;;;18.40;99.90;;;;;;2081307;28;20056;-70
2023/08/01 04:02:52;;;;;;;10.63;9.52;;;18.40;99.90;;;;;;2080620;28;20563;-70
2023/08/01 04:03:53;;;;;;;13.43;10.07;;;18.40;99.90;;;;;;2079324;28;20036;-70
2023/08/01 04:04:54;;;;;;;10.75;9.65;;;18.40;99.90;;;;;;2080375;28;20025;-73
2023/08/01 04:05:54;;;;;;;11.95;10.48;;;18.40;99.90;;;;;;2079843;28;20390;-70
2023/08/01 04:06:55;;;;;;;11.43;10.07;;;18.30;99.90;;;;;;2080787;28;20279;-71
2023/08/01 04:07:55;;;;;;;11.90;10.00;;;18.30;99.90;;;;;;2082930;28;20386;-71
2023/08/01 04:08:56;;;;;;;14.18;10.50;;;18.30;99.90;;;;;;2078379;28;20041;-71
2023/08/01 04:09:57;;;;;;;14.32;10.32;;;18.30;99.90;;;;;;2077561;28;20013;-71
2023/08/01 04:10:57;;;;;;;13.98;9.55;;;18.30;99.90;;;;;;2079112;28;20075;-71
2023/08/01 04:11:58;;;;;;;12.95;10.02;;;18.20;99.90;;;;;;2078290;28;21473;-71
2023/08/01 04:12:58;;;;;;;15.32;11.65;;;18.20;99.90;;;;;;2079172;28;20035;-71
2023/08/01 04:13:59;;;;;;;13.98;10.85;;;18.20;99.90;;;;;;2080164;28;20485;-71
2023/08/01 04:15:00;;;;;;;13.48;10.27;;;18.30;99.90;;;;;;2080666;28;20025;-71
2023/08/01 04:16:00;;;;;;;16.75;10.63;;;18.20;99.90;;;;;;2080455;28;20018;-71
2023/08/01 04:17:01;;;;;;;17.08;10.93;;;18.20;99.90;;;;;;2081629;28;20039;-71
2023/08/01 04:18:02;;;;;;;14.65;10.55;;;18.20;99.90;;;;;;2081435;28;20025;-71
2023/08/01 04:19:02;;;;;;;16.27;12.05;;;18.20;99.90;;;;;;2081023;28;20114;-71
2023/08/01 04:20:03;;;;;;;12.65;10.88;;;18.20;99.90;;;;;;2079201;28;20540;-71
2023/08/01 04:21:04;;;;;;;18.05;11.93;;;18.20;99.90;;;;;;2080440;28;20018;-71
2023/08/01 04:22:04;;;;;;;14.77;11.48;;;18.20;99.90;;;;;;2079876;28;20037;-71
2023/08/01 04:23:05;;;;;;;16.40;12.30;;;18.20;99.90;;;;;;2078435;28;20024;-71
2023/08/01 04:24:05;;;;;;;16.67;13.00;;;18.20;99.90;;;;;;2079913;28;20571;-71
2023/08/01 04:25:06;;;;;;;15.45;13.52;;;18.10;99.90;;;;;;2081010;28;20044;-71
2023/08/01 04:26:07;;;;;;;17.45;13.75;;;18.10;99.90;;;;;;2080210;28;20047;-71
2023/08/01 04:27:08;;;;;;;16.42;13.35;;;18.10;99.90;;;;;;2080292;28;20029;-71
2023/08/01 04:28:08;;;;;;;19.70;12.90;;;18.10;99.90;;;;;;2081540;28;20024;-71
2023/08/01 04:29:09;;;;;;;14.55;12.27;;;18.20;99.90;;;;;;2081593;28;20025;-71
2023/08/01 04:30:10;;;;;;;19.75;12.88;;;18.20;99.90;;;;;;2079428;28;20026;-71
2023/08/01 04:31:10;;;;;;;16.08;13.52;;;18.10;99.90;;;;;;2080100;28;20086;-71
2023/08/01 04:32:13;;;;;;;17.50;13.95;;;18.10;99.90;;;;;;2078455;28;20029;-71
2023/08/01 04:33:14;;;;;;;19.15;14.15;;;18.10;99.90;;;;;;2081042;28;20037;-71
2023/08/01 04:34:14;;;;;;;15.38;12.77;;;18.10;99.90;;;;;;2080690;28;20113;-71
2023/08/01 04:35:15;;;;;;;16.13;13.98;;;18.10;99.90;;;;;;2079792;28;20048;-71
2023/08/01 04:36:16;;;;;;;15.85;13.35;;;18.10;99.90;;;;;;2079623;28;20536;-71
2023/08/01 04:37:16;;;;;;;14.80;13.25;;;18.10;99.90;;;;;;2078498;28;20029;-71
2023/08/01 04:38:17;;;;;;;15.52;12.63;;;18.10;99.90;;;;;;2079530;28;20025;-71
2023/08/01 04:39:17;;;;;;;13.50;12.02;;;18.10;99.90;;;;;;2079647;28;20033;-71
2023/08/01 04:40:18;;;;;;;15.82;12.77;;;18.10;99.90;;;;;;2079108;28;20032;-71
2023/08/01 04:41:18;;;;;;;13.45;11.93;;;18.10;99.90;;;;;;2082210;28;20025;-71
2023/08/01 04:42:19;;;;;;;14.20;11.25;;;18.20;99.90;;;;;;2078243;28;20025;-71
2023/08/01 04:43:19;;;;;;;13.32;11.07;;;18.10;99.90;;;;;;2077156;28;20409;-71
2023/08/01 04:44:20;;;;;;;14.63;10.88;;;18.20;99.90;;;;;;2082081;28;20053;-71
2023/08/01 04:45:20;;;;;;;10.88;9.63;;;18.20;99.90;;;;;;2080486;28;20116;-71
2023/08/01 04:46:21;;;;;;;12.63;10.23;;;18.20;99.90;;;;;;2081170;28;20032;-71
2023/08/01 04:47:22;;;;;;;12.10;9.80;;;18.10;99.90;;;;;;2079438;28;20107;-70
2023/08/01 04:48:22;;;;;;;11.32;10.05;;;18.10;99.90;;;;;;2081367;28;20060;-71
2023/08/01 04:49:24;;;;;;;13.70;10.05;;;18.10;99.90;;;;;;2081094;28;20032;-71
2023/08/01 04:50:24;;;;;;;14.23;9.80;;;18.10;99.90;;;;;;2081697;28;20026;-71
2023/08/01 04:51:25;;;;;;;13.70;9.68;;;18.10;99.90;;;;;;2079793;28;20034;-71
2023/08/01 04:52:26;;;;;;;11.35;9.45;;;18.20;99.90;;;;;;2081413;28;20032;-71
2023/08/01 04:53:26;;;;;;;10.43;9.07;;;18.10;99.90;;;;;;2082198;28;20083;-71
2023/08/01 04:54:27;;;;;;;13.88;9.15;;;18.10;99.90;;;;;;2081065;28;20048;-71
2023/08/01 04:55:27;;;;;;;17.02;10.65;;;18.10;99.90;;;;;;2084047;28;20428;-71
2023/08/01 04:56:28;;;;;;;17.15;9.75;;;18.20;99.90;;;;;;2080143;28;20033;-71
2023/08/01 04:57:28;;;;;;;12.57;10.30;;;18.10;99.90;;;;;;2080337;28;20045;-71
2023/08/01 04:58:30;;;;;;;10.65;8.75;;;18.10;99.90;;;;;;2079678;28;20018;-71
2023/08/01 04:59:31;;;;;;;13.55;10.23;;;18.20;99.90;;;;;;2079201;28;20378;-71
2023/08/01 05:00:31;;;;;;;13.10;10.18;;;18.10;99.90;;;;;;2081510;28;20017;-71
2023/08/01 05:01:32;;;;;;;18.83;10.52;;;18.10;99.90;;;;;;2081435;28;20025;-71
2023/08/01 05:02:32;;;;;;;13.82;10.18;;;18.10;99.90;;;;;;2080017;28;20068;-71
2023/08/01 05:03:33;;;;;;;13.55;10.65;;;18.20;99.90;;;;;;2078769;28;20087;-71
2023/08/01 05:04:33;;;;;;;15.57;11.30;;;18.10;99.90;;;;;;2079365;28;20120;-71
2023/08/01 05:05:34;;;;;;;11.50;9.15;;;18.10;99.90;;;;;;2080306;28;20096;-71
2023/08/01 05:06:35;;;;;;;11.55;9.98;;;18.10;99.90;;;;;;2081290;28;20748;-71
2023/08/01 05:07:35;;;;;;;12.65;9.80;;;18.10;99.90;;;;;;2082053;28;20526;-71
2023/08/01 05:08:36;;;;;;;13.77;10.68;;;18.10;99.90;;;;;;2081050;28;20105;-71
2023/08/01 05:09:36;;;;;;;13.88;9.75;;;18.10;99.90;;;;;;2078124;28;20071;-71
2023/08/01 05:10:37;;;;;;;12.13;9.80;;;18.10;99.90;;;;;;2075540;28;20038;-71
2023/08/01 05:11:37;;;;;;;12.80;10.35;;;18.10;99.90;;;;;;2082363;28;20859;-71
2023/08/01 05:12:38;;;;;;;12.98;10.75;;;18.10;99.90;;;;;;2083185;28;20033;-71
2023/08/01 05:13:38;;;;;;;12.95;10.05;;;18.10;99.90;;;;;;2074773;28;20022;-71
2023/08/01 05:14:39;;;;;;;16.42;9.85;;;18.10;99.90;;;;;;2075623;28;20601;-71